CheckWX is a tool to help pilots better visualize weather data.  It is not intended as a substitute for an official pre-flight weather briefing.

14:48:17 UTC

KHUF TAF
Terre Haute Regional Airport
Terre Haute, Indiana, USA
KHUF 231123Z 2312/2412 00000KT P6SM SKC FM232100 16005KT P6SM FEW250 FM240100 VRB03KT P6SM BKN250 FM240400 VRB03KT P6SM BKN120 FM241000 14005KT P6SM BKN070

Mar-23@
12:00 UTC

Mar-23 @ 12:00 UTC

Mar-23@
21:00 UTC

Mar-23 @ 21:00 UTC

KHUF 231123Z 2312/2412 00000KT P6SM SKC
Cloud Levels
  • Clear skies

Mar-23@
21:00 UTC

Mar-23 @ 21:00 UTC

Mar-24@
01:00 UTC

Mar-24 @ 01:00 UTC

FM232100 16005KT P6SM FEW250

From

From Standard forecast or significant change

Wind
  • 160° at 5 KTS
Cloud Levels
  • Few at 25,000' AGL

Mar-24@
01:00 UTC

Mar-24 @ 01:00 UTC

Mar-24@
04:00 UTC

Mar-24 @ 04:00 UTC

FM240100 VRB03KT P6SM BKN250

From

From Standard forecast or significant change

Wind
  • Variable at 3 KTS
Cloud Levels
  • Broken at 25,000' AGL

Mar-24@
04:00 UTC

Mar-24 @ 04:00 UTC

Mar-24@
10:00 UTC

Mar-24 @ 10:00 UTC

FM240400 VRB03KT P6SM BKN120

From

From Standard forecast or significant change

Wind
  • Variable at 3 KTS
Cloud Levels
  • Broken at 12,000' AGL

Mar-24@
10:00 UTC

Mar-24 @ 10:00 UTC

Mar-24@
12:00 UTC

Mar-24 @ 12:00 UTC

FM241000 14005KT P6SM BKN070

From

From Standard forecast or significant change

Wind
  • 140° at 5 KTS
Cloud Levels
  • Broken at 7,000' AGL